• Join FlightAware (Why Join?)
  • Login
  • US Flag 
12:40AM EDT


 

Airport Tracker/Info


-or-


 

Live Flight TrackerFlight Track Log ✈ UCA5011 ✈ 07-May-2013 ✈ KIAD - KCRW

Flight Track Log - Related Links

Times and Time Zones

All times are in EDT time to prevent confusion due to time zone crossing. See the UCA5011 flight status page for this flight to view local times or setup timezone preferences in your user account.

Time Position Orientation Groundspeed Altitude Reporting Facility
EDT Latitude Longitude Course Direction KTS MPH feet Rate Location/Type
08:45AM 38.8852 -77.9702 261° West  Level Estimated
08:46AM 38.8746 -78.0552 261° West  Level Estimated
08:47AM 38.8640 -78.1401 261° West  Level Estimated
08:48AM 38.8533 -78.2250 261° West  Level Estimated
08:49AM 38.8425 -78.3099 261° West  Level Estimated
08:50AM 38.8317 -78.3947 261° West  Level Estimated
08:51AM 38.8208 -78.4796 261° West  Level Estimated
08:52AM 38.8098 -78.5644 261° West  Level Estimated
08:53AM 38.7988 -78.6491 261° West  Level Estimated
08:54AM 38.7877 -78.7339 261° West  Level Estimated
08:55AM 38.7766 -78.8186 260° West  Level Estimated
08:56AM 38.7654 -78.9033 260° West  Level Estimated
08:57AM 38.7541 -78.9880 260° West  Level Estimated
08:58AM 38.7428 -79.0726 260° West  Level Estimated
08:59AM 38.7314 -79.1572 260° West  Level Estimated
09:00AM 38.7200 -79.2418 260° West  Level Estimated
09:01AM 38.7085 -79.3264 260° West  Level Estimated
09:02AM 38.6969 -79.4109 260° West  Level Estimated
09:03AM 38.6853 -79.4955 260° West  Level Estimated
09:04AM 38.6736 -79.5799 260° West  Level Estimated
09:05AM 38.6618 -79.6644 260° West  Level Estimated
09:06AM 38.6500 -79.7488 260° West  Level Estimated
09:07AM 38.6382 -79.8332 260° West  Level Estimated
09:08AM 38.6262 -79.9176 260° West  Level Estimated
09:09AM 38.6143 -80.0019 260° West  Level Estimated
09:10AM 38.6022 -80.0862 260° West  Level Estimated
09:11AM 38.5901 -80.1705 260° West  Level Estimated
09:12AM 38.5779 -80.2548 260° West  Level Estimated
09:13AM 38.5657 -80.3390 260° West  Level Estimated
09:14AM 38.5534 -80.4232 259° West  Level Estimated
09:15AM 38.5410 -80.5074 259° West  Level Estimated
09:16AM 38.5286 -80.5915 259° West  Level Estimated
09:17AM 38.5162 -80.6756 259° West  Level Estimated
09:18AM 38.5036 -80.7597 259° West  Level Estimated
09:19AM 38.4911 -80.8437 259° West  Level Estimated
09:20AM 38.4784 -80.9278 259° West  Level Estimated
09:21AM 38.4657 -81.0117 259° West  Level Estimated
09:22AM 38.4529 -81.0957 259° West  Level Estimated
09:23AM 38.4401 -81.1796 259° West  Level Estimated
09:24AM 38.4272 -81.2635 259° West  Level Estimated
09:25AM 38.4142 -81.3474 259° West  Level Estimated
09:26AM 38.4012 -81.4313 259° West  Level Estimated
09:27AM 38.3881 -81.5151 259° West  Level Estimated
09:28AM 38.3759 -81.5930 259° West  Level Estimated
09:29AM 38.3759 -81.5930 254° West  Level Estimated
09:30AM 38.3759 -81.5930 254° West  Level Estimated
09:31AM 38.3759 -81.5930 254° West  Level Estimated
09:32AM 38.3759 -81.5930 254° West  Level Estimated
09:33AM 38.3759 -81.5930 254° West  Level Estimated
09:34AM 38.3759 -81.5930 254° West  Level Estimated
09:35AM 38.3759 -81.5930 254° West  Level Estimated
09:36AM 38.3759 -81.5930 254° West  Level Estimated
09:37AM 38.3759 -81.5930 254° West  Level Estimated
09:38AM 38.3759 -81.5930 254° West  Level Estimated
09:39AM 38.3759 -81.5930 254° West  Level Estimated